This is the latest recevied weather packets stored in our database for station/object LRTR. If no packets are shown the sender has not sent any weather packets the latest 1 day(s).
| Time | Temp. | Humidity | Pressure | Rain* | Wind** | Luminosity | Snow |
|---|---|---|---|---|---|---|---|
| 1778097785 | 12.78° C | 82% | 1011 hPa | - | - | - | - |
| 1778096009 | 12.78° C | 82% | 1011 hPa | - | - | - | - |
| 1778095086 | 13.89° C | 82% | 1011 hPa | - | - | - | - |
| 1778086985 | 23.89° C | 36% | 1010 hPa | - | - | - | - |
| 1778082486 | 25° C | 32% | 1011 hPa | - | - | - | - |
| 1778080685 | 26.11° C | 30% | 1011 hPa | - | - | - | - |
| 1778078885 | 25° C | 32% | 1011 hPa | - | - | - | - |
| 1778077997 | 25° C | 32% | 1011 hPa | - | - | - | - |
| 1778075310 | 26.11° C | 30% | 1012 hPa | - | - | - | - |
| 1778072594 | 26.11° C | 32% | 1012 hPa | - | - | - | - |
| 1778068085 | 23.89° C | 36% | 1013 hPa | - | - | - | - |
| 1778066285 | 22.78° C | 38% | 1013 hPa | - | - | - | - |
| 1778065385 | 22.78° C | 38% | 1013 hPa | - | - | - | - |
| 1778061785 | 23.89° C | 36% | 1014 hPa | - | - | - | - |
| 1778059985 | 22.78° C | 38% | 1014 hPa | - | - | - | - |
| 1778058185 | 22.22° C | 41% | 1014 hPa | - | - | - | - |
| 1778057285 | 21.11° C | 46% | 1014 hPa | - | - | - | - |
| 1778056385 | 21.11° C | 46% | 1014 hPa | - | - | - | - |
| 1778051885 | 18.89° C | 52% | 1014 hPa | - | - | - | - |
| 1778050985 | 18.89° C | 52% | 1014 hPa | - | - | - | - |
| 1778050085 | 17.78° C | 56% | 1014 hPa | - | - | - | - |
| 1778049185 | 17.78° C | 56% | 1014 hPa | - | - | - | - |
| 1778048285 | 16.11° C | 59% | 1014 hPa | - | - | - | - |
| 1778046486 | 12.78° C | 72% | 1014 hPa | - | - | - | - |
| 1778045593 | 12.78° C | 72% | 1014 hPa | - | - | - | - |
* Rain since midnight (hover to see other rain measurements)
** Current wind speed in m/s (hover to see current wind gust speed)